Giorgio Rossetti

Olheiro - AC Milan
3 Dez 2028
Domingo
Processo

Personalidade

Adaptabilidade (12) Ambição (17) Controvérsia (15) Lealdade (12) Pressão (6) Profissionalismo (7) Espírito Esportivo (13) Temperamento (10)

Perfil

Estilo de Treinamento Democrático
Licença Nacional B
Determinação 16
Gestão de Pessoas 16
Motivação 12
Disciplina 7
Satisfação no Trabalho
100%
Fadiga
0%
Função Olheiro
Salário 56.1K p/s
Contrato 14.03.2029

Desempenho

Comportamento Bom
Eficácia do Treinamento
55%
Desenvolvimento do Jogador
65%
Prevenção de Lesões
30%
Implementação Tática
80%

Eventos Recentes

Avaliou um jogador agora
Participou de uma reunião de recrutamento agora
Participou de uma reunião de recrutamento agora
Participou de uma reunião de recrutamento agora
Avaliou um jogador agora
Avaliou um jogador agora
Avaliou um jogador agora
Avaliou um jogador 7d atrás

Monitorando agora

136
Jogador Clube Status Habilidade Confiança Observado Última observação Último voto
Bradley Barcola Liverpool Ativo 173 / 169 40% 3 02.12.2028 -
Ismaïla Sarr Crystal Palace Ativo 158 / 155 40% 2 02.12.2028 -
Mohamed-Ali Cho Hull City Ativo 146 / 152 40% 2 02.12.2028 -
Alexander Isak Liverpool Ativo 178 / 175 40% 2 01.12.2028 -
Samu Aghehowa Udinese Ativo 160 / 162 40% 1 01.12.2028 -
Ez Abde Betis Ativo 161 / 154 40% 1 01.12.2028 -
Yeremy Pino Crystal Palace Ativo 158 / 158 40% 3 29.11.2028 -
Kai Havertz Liverpool Ativo 170 / 167 40% 4 29.11.2028 -
Fábio Carvalho Brentford Ativo 153 / 146 40% 3 29.11.2028 -
Yankuba Minteh Brighton Ativo 161 / 161 40% 1 29.11.2028 -
Matías Fernández-Pardo Atalanta Ativo 155 / 157 40% 1 29.11.2028 -
Omar Marmoush Manchester City Ativo 174 / 174 40% 1 29.11.2028 -
Iliman N'Diaye Everton Ativo 167 / 164 40% 9 28.11.2028 -
Brian Brobbey Sunderland Ativo 152 / 147 40% 3 28.11.2028 -
Evann Guessand Aston Villa Ativo 156 / 155 40% 2 27.11.2028 -
Taty Castellanos West Ham United Ativo 151 / 156 40% 1 27.11.2028 -
Álex Jiménez Bournemouth Ativo 160 / 159 40% 5 26.11.2028 -
Gabriel Martinelli Arsenal Ativo 168 / 165 40% 3 26.11.2028 -
Hugo Ekitiké Liverpool Ativo 173 / 172 40% 3 26.11.2028 -
Jérémy Doku Manchester City Ativo 174 / 174 40% 4 25.11.2028 -
Boubacar Kamara Aston Villa Ativo 171 / 171 40% 3 24.11.2028 -
Savinho Tottenham Ativo 164 / 166 40% 6 24.11.2028 -
Phil Foden Manchester City Ativo 181 / 178 40% 6 24.11.2028 -
Wilfried Gnonto Leeds United Ativo 148 / 145 40% 3 22.11.2028 -
Darwin Núñez Al-Hilal Ativo 159 / 163 40% 1 22.11.2028 -
Babis Kostoulas Oxford United Ativo 149 / 151 40% 1 22.11.2028 -
Lorenzo Colombo Genoa Ativo 148 / 149 40% 2 21.11.2028 -
Richarlison Bournemouth Ativo 151 / 150 40% 1 21.11.2028 -
Kenan Yıldız Chelsea Ativo 167 / 165 40% 4 20.11.2028 -
Nicolas Jackson Aston Villa Ativo 156 / 152 40% 2 20.11.2028 -
Francesco Pio Esposito Frosinone Ativo 155 / 150 40% 2 20.11.2028 -
Dango Ouattara Middlesbrough Ativo 155 / 158 40% 1 19.11.2028 -
Emanuel Emegha Chelsea Ativo 149 / 148 40% 1 19.11.2028 -
Nicolò Zaniolo Udinese Ativo 152 / 148 40% 1 19.11.2028 -
Dejan Kulusevski Tottenham Ativo 175 / 172 40% 3 17.11.2028 -
Emile Smith Rowe Cardiff City Ativo 160 / 160 40% 4 17.11.2028 -
Jørgen Strand Larsen Brighton Ativo 152 / 155 40% 2 17.11.2028 -
Endrick Boca Juniors Ativo 158 / 164 40% 9 15.11.2028 -
Charles De Ketelaere Tottenham Ativo 161 / 159 40% 7 14.11.2028 -
Jonathan David Atalanta Ativo 156 / 154 40% 4 14.11.2028 -
Carlos Alcaraz Stoke City Ativo 160 / 152 40% 2 14.11.2028 -
Diego Mascardi Juventus Ativo 147 / 148 40% 1 14.11.2028 -
Daniil Khudyakov Hamburger SV Ativo 144 / 148 40% 1 14.11.2028 -
Morgan Rogers Chelsea Ativo 169 / 167 40% 2 11.11.2028 -
Nick Woltemade Newcastle United Ativo 166 / 160 40% 1 10.11.2028 -
João Pedro Chelsea Ativo 160 / 160 40% 3 09.11.2028 -
Sebastiano Esposito Cagliari Ativo 146 / 145 40% 1 08.11.2028 -
Donyell Malen AS Roma Ativo 155 / 151 40% 2 07.11.2028 -
Joško Gvardiol Manchester City Ativo 175 / 170 40% 3 07.11.2028 Observar
Bryan Mbeumo Manchester United Ativo 166 / 162 40% 2 03.11.2028 -
Mason Mount Manchester United Ativo 157 / 155 40% 1 03.11.2028 -
Enzo Fernández Manchester City Ativo 173 / 178 40% 2 02.11.2028 -
Julio Enciso Aston Villa Ativo 160 / 155 40% 1 02.11.2028 -
Bukayo Saka Arsenal Ativo 191 / 189 40% 3 01.11.2028 -
Juanlu Bournemouth Ativo 159 / 159 40% 1 01.11.2028 -
Mateus Fernandes Sheffield United Ativo 155 / 160 40% 1 30.10.2028 -
Loïs Openda Juventus Ativo 155 / 152 40% 1 28.10.2028 -
Manu Koné AS Roma Ativo 177 / 175 40% 1 28.10.2028 -
Moisés Caicedo Chelsea Ativo 174 / 172 40% 2 26.10.2028 -
Khéphren Thuram Juventus Ativo 165 / 168 40% 1 26.10.2028 -
Rayan Cherki Manchester City Ativo 169 / 171 40% 7 25.10.2028 -
Florian Wirtz Liverpool Ativo 175 / 171 40% 4 16.10.2028 -
Reece James Chelsea Ativo 178 / 173 40% 2 16.10.2028 -
Nico Paz Arsenal Ativo 167 / 171 40% 3 16.10.2028 -
Matheus Cunha Manchester United Ativo 165 / 165 40% 2 15.10.2028 -
Xavi Simons Tottenham Ativo 162 / 162 40% 2 14.10.2028 -
Alejandro Garnacho Hull City Ativo 161 / 162 40% 1 14.10.2028 -
Ryan Gravenberch Liverpool Ativo 167 / 166 40% 3 13.10.2028 -
Destiny Udogie Tottenham Ativo 163 / 163 40% 1 12.10.2028 -
Pedro Porro Tottenham Ativo 157 / 157 40% 3 11.10.2028 -
Sandro Tonali Tottenham Ativo 177 / 171 40% 1 07.10.2028 -
Amad Manchester United Ativo 164 / 161 40% 1 07.10.2028 -
Óscar Mingueza Crystal Palace Ativo 160 / 157 40% 1 04.10.2028 -
Matías Soulé AS Roma Ativo 167 / 160 40% 4 02.10.2028 -
Éderson Liverpool Ativo 163 / 170 40% 3 28.09.2028 -
Miloš Kerkez Liverpool Ativo 164 / 167 40% 1 24.09.2028 -
Dominik Szoboszlai Liverpool Ativo 169 / 171 40% 2 19.09.2028 -
Nico González Arsenal Ativo 170 / 172 40% 1 19.09.2028 -
Martín Zubimendi Arsenal Ativo 169 / 171 40% 2 18.09.2028 -
Antoine Semenyo Manchester City Ativo 164 / 165 40% 2 16.09.2028 -
Rico Lewis West Bromwich Albion Ativo 163 / 163 40% 1 15.09.2028 -
Tino Livramento Newcastle United Ativo 170 / 171 40% 1 15.09.2028 -
Quinten Timber Crystal Palace Ativo 161 / 157 40% 1 13.09.2028 -
Exequiel Palacios Lazio Ativo 159 / 164 40% 2 12.09.2028 -
Martin Ødegaard Arsenal Ativo 181 / 179 40% 1 08.09.2028 -
Jeremie Frimpong Liverpool Ativo 164 / 168 40% 1 06.09.2028 -
Ale Gomes Zaragoza Ativo 118 / 128 40% 1 21.08.2028 -
Chris Rigg West Ham United Ativo 140 / 145 40% 1 21.08.2028 -
Ayyoub Bouaddi Stoke City Ativo 148 / 162 40% 1 31.07.2028 -
Harrison Armstrong Ipswich Town Ativo 136 / 146 40% 1 31.07.2028 -
Matteo Palma Udinese Ativo 129 / 130 40% 1 31.07.2028 -
Jayden Addai Bari Ativo 142 / 143 40% 1 19.06.2028 -
Malick Fofana Sunderland Ativo 152 / 152 40% 1 19.06.2028 -
James Rodríguez Pescara Perdido 131 / 137 86% 1 12.06.2028 -
Jayden Danns Bradford City Ativo 140 / 140 40% 1 06.06.2028 -
Ezra Mayers West Ham United Ativo 124 / 130 40% 6 02.06.2028 -
Josh Acheampong Everton Perdido 145 / 145 40% 1 31.12.2027 -
Daniel Banjaqui Benfica Ativo 120 / 127 40% 1 31.12.2027 -
Jorthy Mokio ADO Den Haag Ativo 130 / 137 40% 1 31.12.2027 -
Sindre Walle Egeli Udinese Perdido 138 / 141 40% 1 16.08.2027 -
Unai Gómez Udinese Ativo 141 / 146 40% 1 16.08.2027 Mais informações
Kirill Glebov CSKA Moscow Ativo 131 / 127 40% 1 12.07.2027 -
Matias Siltanen Malmo FF Ativo 126 / 118 40% 1 12.07.2027 -
Gianluca Scamacca Atalanta Perdido 148 / 142 83% 1 02.06.2027 -
Victor Hernandez Santa Fe Ativo 117 / 119 40% 6 30.05.2027 -
Gonçalo Oliveira Benfica Ativo 116 / 121 40% 1 29.05.2027 -
Gady Beyuku Blackburn Rovers Ativo 115 / 120 40% 7 22.05.2027 -
Luka Vušković Tottenham Ativo 145 / 147 40% 10 19.05.2027 -
Halam Loboa Sevilla Ativo 123 / 122 40% 4 16.05.2027 -
Samuele di Benedetto Twente Ativo 115 / 116 40% 3 09.05.2027 -
Eliás Montiel Borussia Dortmund Ativo 130 / 134 40% 1 03.05.2027 -
David Ozoh Derby County Ativo 116 / 130 40% 6 06.04.2027 -
Kobbie Mainoo Manchester United Ativo 149 / 153 40% 3 20.03.2027 -
Juan Manuel Villalba Tigre Ativo 111 / 118 40% 1 17.03.2027 -
Riyad Idrissi Cagliari Ativo 121 / 125 40% 3 12.03.2027 -
Everardo López Betis Ativo 123 / 131 40% 1 23.02.2027 -
Philippe Ndinga Philadelphia Union Ativo 118 / 122 40% 2 17.12.2026 -
Cam Bragg West Ham United Ativo 114 / 116 40% 1 10.12.2026 -
Louis Leroux FC Nantes Ativo 130 / 124 40% 4 08.12.2026 -
Cheveyo Tsawa Club Brugge Ativo 116 / 122 40% 1 08.12.2026 -
Fabijan Krivak Sigma Olomouc Ativo 110 / 108 40% 1 19.11.2026 -
Illaijh de Ruijter ADO Den Haag Ativo 115 / 113 40% 1 18.11.2026 -
Matteo Pérez Vinlöf Dinamo Zagreb Ativo 121 / 134 40% 1 16.11.2026 -
Mbekezeli Mbokazi Chicago Fire Ativo 127 / 133 40% 1 11.11.2026 -
Sergi Domínguez Dinamo Zagreb Ativo 114 / 115 40% 1 05.11.2026 -
Zion Suzuki Aston Villa Ativo 140 / 139 40% 3 27.09.2026 -
Esteban Glellel Quilmes Ativo 111 / 115 40% 2 27.09.2026 -
James Trafford Leeds United Ativo 143 / 139 40% 2 27.09.2026 -
Senne Lammens Manchester United Ativo 142 / 145 40% 1 23.09.2026 -
Giorgi Mamardashvili Liverpool Ativo 154 / 155 40% 1 22.09.2026 -
Radek Vítek Middlesbrough Ativo 127 / 127 40% 4 21.09.2026 -
Patrick Schulte Columbus Crew Ativo 121 / 116 40% 1 20.09.2026 -
Anthony Patterson Wrexham Ativo 133 / 132 40% 1 20.09.2026 -
Matevž Vidovšek Olimpija Ljubljana Ativo 114 / 106 40% 1 17.09.2026 -
Elia Caprile Cagliari Ativo 144 / 148 40% 1 07.09.2026 -
Mile Svilar AS Roma Ativo 158 / 153 40% 1 07.09.2026 -